createdAt,value
2022-11-15T00:01:20.850Z,7.70
2022-11-15T00:04:11.666Z,7.66
2022-11-15T00:07:02.478Z,7.65
2022-11-15T00:09:52.866Z,7.67
2022-11-15T00:12:43.621Z,7.68
2022-11-15T00:15:36.207Z,7.70
2022-11-15T00:18:26.685Z,7.69
2022-11-15T00:21:18.341Z,7.73
2022-11-15T00:24:10.120Z,7.76
2022-11-15T00:27:01.119Z,7.70
2022-11-15T00:29:51.858Z,7.67
2022-11-15T00:32:42.330Z,7.64
2022-11-15T00:35:35.515Z,7.54
2022-11-15T00:38:26.246Z,7.52
2022-11-15T00:41:16.878Z,7.56
2022-11-15T00:44:07.702Z,7.56
2022-11-15T00:46:58.664Z,7.60
2022-11-15T00:49:49.593Z,7.65
2022-11-15T00:52:40.398Z,7.67
2022-11-15T00:55:31.178Z,7.66
2022-11-15T00:58:22.136Z,7.66
2022-11-15T01:01:16.108Z,7.66
2022-11-15T01:04:07.384Z,7.66
2022-11-15T01:06:57.664Z,7.66
2022-11-15T01:09:48.454Z,7.70
2022-11-15T01:12:39.541Z,7.68
2022-11-15T01:15:29.962Z,7.67
2022-11-15T01:18:20.409Z,7.65
2022-11-15T01:21:16.440Z,7.60
2022-11-15T01:24:08.198Z,7.59
2022-11-15T01:26:58.714Z,7.57
2022-11-15T01:29:49.391Z,7.55
2022-11-15T01:32:40.109Z,7.47
2022-11-15T01:35:30.540Z,7.37
2022-11-15T01:38:21.244Z,7.39
2022-11-15T01:41:19.403Z,7.41
2022-11-15T01:44:49.190Z,7.41
2022-11-15T01:47:42.801Z,7.47
2022-11-15T01:50:35.157Z,7.45
2022-11-15T01:53:28.098Z,7.42
2022-11-15T01:56:22.190Z,7.41
2022-11-15T01:59:13.967Z,7.37
2022-11-15T02:02:05.208Z,7.34
2022-11-15T02:04:56.142Z,7.31
2022-11-15T02:07:47.358Z,7.31
2022-11-15T02:10:38.269Z,7.37
2022-11-15T02:13:29.820Z,7.36
2022-11-15T02:16:29.935Z,7.37
2022-11-15T02:19:48.338Z,7.41
2022-11-15T02:22:53.147Z,7.50
2022-11-15T02:25:57.596Z,7.56
2022-11-15T02:29:02.738Z,7.59
2022-11-15T02:31:59.380Z,7.56
2022-11-15T02:34:58.530Z,7.54
2022-11-15T02:37:57.989Z,7.45
2022-11-15T02:40:55.885Z,7.37
2022-11-15T02:44:00.351Z,7.34
2022-11-15T02:47:12.440Z,7.33
2022-11-15T02:50:09.261Z,7.27
2022-11-15T02:53:00.224Z,7.29
2022-11-15T02:55:55.362Z,7.33
2022-11-15T02:59:03.212Z,7.24
2022-11-15T03:02:08.272Z,7.21
2022-11-15T03:05:04.838Z,7.19
2022-11-15T03:08:02.990Z,7.13
2022-11-15T03:11:06.185Z,7.10
2022-11-15T03:14:01.784Z,7.16
2022-11-15T03:17:01.211Z,7.24
2022-11-15T03:19:55.332Z,7.27
2022-11-15T03:22:48.970Z,7.30
2022-11-15T03:25:43.482Z,7.36
2022-11-15T03:28:38.613Z,7.35
2022-11-15T03:31:51.342Z,7.31
2022-11-15T03:34:47.720Z,7.23
2022-11-15T03:37:48.020Z,7.22
2022-11-15T03:40:41.883Z,7.23
2022-11-15T03:43:42.254Z,7.25
2022-11-15T03:46:39.136Z,7.30
2022-11-15T03:49:33.823Z,7.28
2022-11-15T03:52:25.933Z,7.26
2022-11-15T03:55:19.300Z,7.31
2022-11-15T03:58:10.746Z,7.36
2022-11-15T04:01:01.869Z,7.42
2022-11-15T04:03:52.509Z,7.42
2022-11-15T04:06:43.082Z,7.36
2022-11-15T04:09:34.018Z,7.30
2022-11-15T04:12:31.933Z,7.24
2022-11-15T04:15:25.560Z,7.19
2022-11-15T04:18:16.339Z,7.19
2022-11-15T04:21:25.064Z,7.11
2022-11-15T04:24:15.411Z,7.09
2022-11-15T04:27:06.214Z,7.10
2022-11-15T04:29:59.349Z,7.14
2022-11-15T04:32:49.798Z,7.13
2022-11-15T04:35:40.375Z,7.11
2022-11-15T04:38:31.278Z,7.13
2022-11-15T04:41:22.059Z,7.19
2022-11-15T04:44:12.864Z,7.19
2022-11-15T04:47:04.436Z,7.23
2022-11-15T04:49:55.216Z,7.26
2022-11-15T04:52:52.112Z,7.29
2022-11-15T04:55:46.171Z,7.28
2022-11-15T04:58:37.590Z,7.26
2022-11-15T05:01:28.389Z,7.19
2022-11-15T05:04:22.563Z,7.11
2022-11-15T05:07:13.678Z,7.03
2022-11-15T05:10:04.601Z,6.99
2022-11-15T05:12:55.379Z,7.02
2022-11-15T05:15:46.134Z,7.06
2022-11-15T05:18:36.605Z,7.12
2022-11-15T05:21:27.359Z,7.13
2022-11-15T05:24:17.885Z,7.11
2022-11-15T05:27:08.381Z,7.13
2022-11-15T05:29:59.315Z,7.05
2022-11-15T05:32:50.621Z,7.02
2022-11-15T05:35:46.251Z,6.98
2022-11-15T05:38:35.503Z,6.96
2022-11-15T05:41:33.390Z,6.92
2022-11-15T05:44:27.483Z,6.96
2022-11-15T05:47:22.423Z,7.06
2022-11-15T05:50:16.582Z,7.11
2022-11-15T05:53:08.028Z,7.14
2022-11-15T05:55:59.346Z,7.13
2022-11-15T05:58:50.279Z,7.20
2022-11-15T06:01:42.208Z,7.18
2022-11-15T06:04:32.965Z,7.15
2022-11-15T06:07:23.467Z,7.14
2022-11-15T06:10:14.935Z,7.09
2022-11-15T06:13:07.249Z,7.04
2022-11-15T06:16:00.384Z,7.01
2022-11-15T06:18:51.061Z,6.99
2022-11-15T06:21:41.559Z,6.94
2022-11-15T06:24:32.390Z,6.97
2022-11-15T06:27:23.553Z,7.04
2022-11-15T06:30:15.400Z,7.07
2022-11-15T06:33:07.648Z,7.07
2022-11-15T06:36:01.653Z,7.03
2022-11-15T06:38:52.335Z,7.04
2022-11-15T06:41:42.861Z,7.08
2022-11-15T06:44:33.429Z,7.12
2022-11-15T06:47:24.028Z,7.19
2022-11-15T06:50:15.271Z,7.18
2022-11-15T06:53:06.870Z,7.09
2022-11-15T06:56:02.872Z,7.07
2022-11-15T06:58:53.449Z,7.07
2022-11-15T07:01:44.700Z,7.04
2022-11-15T07:04:37.231Z,7.00
2022-11-15T07:07:27.938Z,6.88
2022-11-15T07:10:19.320Z,6.79
2022-11-15T07:13:09.676Z,6.76
2022-11-15T07:16:00.042Z,6.84
2022-11-15T07:18:50.725Z,6.92
2022-11-15T07:21:41.399Z,6.98
2022-11-15T07:24:31.845Z,7.09
2022-11-15T07:27:22.548Z,7.18
2022-11-15T07:30:15.854Z,7.21
2022-11-15T07:33:06.566Z,7.23
2022-11-15T07:36:03.774Z,7.24
2022-11-15T07:38:54.702Z,7.23
2022-11-15T07:41:45.815Z,7.19
2022-11-15T07:44:36.697Z,7.12
2022-11-15T07:47:27.857Z,7.09
2022-11-15T07:50:18.692Z,7.18
2022-11-15T07:53:10.242Z,7.23
2022-11-15T07:56:01.021Z,7.21
2022-11-15T07:58:52.259Z,7.24
2022-11-15T08:01:42.757Z,7.25
2022-11-15T08:04:33.783Z,7.22
2022-11-15T08:07:24.472Z,7.16
2022-11-15T08:10:17.810Z,7.17
2022-11-15T08:13:10.248Z,7.15
2022-11-15T08:16:03.035Z,7.18
2022-11-15T08:18:54.092Z,7.17
2022-11-15T08:21:44.926Z,7.15
2022-11-15T08:24:36.020Z,7.23
2022-11-15T08:27:26.525Z,7.26
2022-11-15T08:30:19.452Z,7.30
2022-11-15T08:33:14.367Z,7.34
2022-11-15T08:36:05.712Z,7.39
2022-11-15T08:38:56.720Z,7.39
2022-11-15T08:41:47.459Z,7.35
2022-11-15T08:44:38.311Z,7.31
2022-11-15T08:47:29.517Z,7.29
2022-11-15T08:50:20.945Z,7.26
2022-11-15T08:53:12.511Z,7.28
2022-11-15T08:56:03.495Z,7.35
2022-11-15T08:58:54.326Z,7.34
2022-11-15T09:01:45.281Z,7.38
2022-11-15T09:04:36.550Z,7.45
2022-11-15T09:07:27.302Z,7.46
2022-11-15T09:10:19.647Z,7.42
2022-11-15T09:13:10.630Z,7.45
2022-11-15T09:16:02.929Z,7.47
2022-11-15T09:18:54.397Z,7.47
2022-11-15T09:21:45.426Z,7.46
2022-11-15T09:24:36.283Z,7.48
2022-11-15T09:27:31.542Z,7.49
2022-11-15T09:30:22.284Z,7.47
2022-11-15T09:33:14.537Z,7.49
2022-11-15T09:36:07.569Z,7.51
2022-11-15T09:38:59.374Z,7.54
2022-11-15T09:42:10.102Z,7.55
2022-11-15T09:45:20.817Z,7.50
2022-11-15T09:48:36.283Z,7.53
2022-11-15T09:51:31.585Z,7.52
2022-11-15T09:57:16.306Z,7.43
2022-11-15T10:00:30.760Z,7.49
2022-11-15T10:03:12.805Z,7.56
2022-11-15T10:05:48.196Z,7.56
2022-11-15T10:08:47.016Z,7.58
2022-11-15T10:11:36.886Z,7.57
2022-11-15T10:14:17.463Z,7.54
2022-11-15T10:17:34.534Z,7.53
2022-11-15T10:20:18.283Z,7.58
2022-11-15T10:22:52.902Z,7.59
2022-11-15T10:25:27.253Z,7.62
2022-11-15T10:28:03.049Z,7.71
2022-11-15T10:30:37.469Z,7.69
2022-11-15T10:33:25.947Z,7.64
2022-11-15T10:36:20.002Z,7.69
2022-11-15T10:38:58.491Z,7.77
2022-11-15T10:41:40.824Z,7.81
2022-11-15T10:44:27.738Z,7.81
2022-11-15T10:47:22.742Z,7.83
2022-11-15T10:50:00.621Z,7.87
2022-11-15T10:52:34.954Z,7.91
2022-11-15T10:55:23.749Z,7.94
2022-11-15T10:57:58.091Z,8.04
2022-11-15T11:00:37.758Z,8.08
2022-11-15T11:03:29.567Z,8.08
2022-11-15T11:06:10.790Z,8.06
2022-11-15T11:08:54.941Z,8.11
2022-11-15T11:11:27.422Z,8.12
2022-11-15T11:14:19.286Z,8.14
2022-11-15T11:16:55.077Z,8.15
2022-11-15T11:19:53.944Z,8.17
2022-11-15T11:22:39.953Z,8.16
2022-11-15T11:25:25.139Z,8.19
2022-11-15T11:28:11.768Z,8.24
2022-11-15T11:30:52.540Z,8.24
2022-11-15T11:33:29.215Z,8.24
2022-11-15T11:36:12.951Z,8.25
2022-11-15T11:38:59.077Z,8.30
2022-11-15T11:41:53.850Z,8.29
2022-11-15T11:44:35.640Z,8.29
2022-11-15T11:47:13.260Z,8.28
2022-11-15T11:49:50.246Z,8.24
2022-11-15T11:52:28.021Z,8.20
2022-11-15T11:55:05.991Z,8.18
2022-11-15T11:57:44.627Z,8.20
2022-11-15T12:00:25.258Z,8.20
2022-11-15T12:03:10.502Z,8.21
2022-11-15T12:05:45.520Z,8.23
2022-11-15T12:08:26.591Z,8.24
2022-11-15T12:11:11.718Z,8.24
2022-11-15T12:13:44.933Z,8.27
2022-11-15T12:16:22.323Z,8.22
2022-11-15T12:18:59.127Z,8.16
2022-11-15T12:21:41.629Z,8.16
2022-11-15T12:24:20.437Z,8.20
2022-11-15T12:26:58.056Z,8.27
2022-11-15T12:29:35.702Z,8.33
2022-11-15T12:32:26.790Z,8.35
2022-11-15T12:35:00.623Z,8.32
2022-11-15T12:37:51.357Z,8.36
2022-11-15T12:40:25.977Z,8.39
2022-11-15T12:43:19.164Z,8.40
2022-11-15T12:45:51.126Z,8.38
2022-11-15T12:48:51.509Z,8.37
2022-11-15T12:51:47.974Z,8.34
2022-11-15T12:55:11.439Z,8.29
2022-11-15T12:57:45.602Z,8.30
2022-11-15T13:00:50.053Z,8.35
2022-11-15T13:03:32.411Z,8.40
2022-11-15T13:06:33.152Z,8.44
2022-11-15T13:09:05.219Z,8.47
2022-11-15T13:11:52.233Z,8.51
2022-11-15T13:14:56.735Z,8.51
2022-11-15T13:17:34.942Z,8.50
2022-11-15T13:20:25.544Z,8.48
2022-11-15T13:23:05.470Z,8.44
2022-11-15T13:25:57.146Z,8.41
2022-11-15T13:28:35.880Z,8.32
2022-11-15T13:31:26.749Z,8.28
2022-11-15T13:34:01.752Z,8.36
2022-11-15T13:36:35.871Z,8.38
2022-11-15T13:39:16.925Z,8.41
2022-11-15T13:41:52.419Z,8.44
2022-11-15T13:44:26.099Z,8.44
2022-11-15T13:47:14.394Z,8.44
2022-11-15T13:49:46.666Z,8.43
2022-11-15T13:52:19.061Z,8.42
2022-11-15T13:54:58.625Z,8.40
2022-11-15T13:57:37.994Z,8.36
2022-11-15T14:00:37.734Z,8.37
2022-11-15T14:03:18.144Z,8.42
2022-11-15T14:06:03.777Z,8.38
2022-11-15T14:08:36.361Z,8.39
2022-11-15T14:11:18.023Z,8.41
2022-11-15T14:14:13.183Z,8.40
2022-11-15T14:16:46.988Z,8.31
2022-11-15T14:19:39.608Z,8.27
2022-11-15T14:22:21.581Z,8.27
2022-11-15T14:28:12.589Z,8.28
2022-11-15T14:30:48.223Z,8.29
2022-11-15T14:33:25.279Z,8.35
2022-11-15T14:35:58.409Z,8.36
2022-11-15T14:38:30.991Z,8.37
2022-11-15T14:41:03.131Z,8.33
2022-11-15T14:43:35.761Z,8.29
2022-11-15T14:46:08.084Z,8.27
2022-11-15T14:48:39.940Z,8.24
2022-11-15T14:51:17.540Z,8.21
2022-11-15T14:53:49.889Z,8.20
2022-11-15T14:56:21.799Z,8.21
2022-11-15T14:58:53.686Z,8.23
2022-11-15T15:01:28.626Z,8.30
2022-11-15T15:04:00.753Z,8.32
2022-11-15T15:06:32.979Z,8.32
2022-11-15T15:09:06.271Z,8.31
2022-11-15T15:11:38.747Z,8.24
2022-11-15T15:14:11.709Z,8.24
2022-11-15T15:16:43.851Z,8.26
2022-11-15T15:19:15.894Z,8.28
2022-11-15T15:21:48.035Z,8.31
2022-11-15T15:24:20.177Z,8.31
2022-11-15T15:26:52.245Z,8.30
2022-11-15T15:29:24.771Z,8.33
2022-11-15T15:31:56.938Z,8.38
2022-11-15T15:34:29.003Z,8.39
2022-11-15T15:37:25.800Z,8.42
2022-11-15T15:39:58.995Z,8.45
2022-11-15T15:42:31.830Z,8.46
2022-11-15T15:45:03.945Z,8.47
2022-11-15T15:47:36.111Z,8.47
2022-11-15T15:50:26.636Z,8.50
2022-11-15T15:53:00.262Z,8.53
2022-11-15T15:55:33.046Z,8.53
2022-11-15T15:58:05.237Z,8.54
2022-11-15T16:00:37.981Z,8.56
2022-11-15T16:03:10.086Z,8.56
2022-11-15T16:05:42.334Z,8.57
2022-11-15T16:08:21.565Z,8.57
2022-11-15T16:10:54.221Z,8.58
2022-11-15T16:13:26.413Z,8.60
2022-11-15T16:15:58.685Z,8.57
2022-11-15T16:18:31.324Z,8.53
2022-11-15T16:21:03.865Z,8.52
2022-11-15T16:23:36.238Z,8.52
2022-11-15T16:26:20.184Z,8.53
2022-11-15T16:28:52.557Z,8.53
2022-11-15T16:31:25.032Z,8.52
2022-11-15T16:33:57.150Z,8.53
2022-11-15T16:36:33.131Z,8.52
2022-11-15T16:39:06.350Z,8.54
2022-11-15T16:41:38.747Z,8.51
2022-11-15T16:44:10.967Z,8.50
2022-11-15T16:46:44.619Z,8.50
2022-11-15T16:49:17.710Z,8.50
2022-11-15T16:51:50.928Z,8.46
2022-11-15T16:54:22.968Z,8.43
2022-11-15T16:56:55.750Z,8.41
2022-11-15T16:59:27.944Z,8.38
2022-11-15T17:02:00.092Z,8.35
2022-11-15T17:04:34.023Z,8.30
2022-11-15T17:07:06.999Z,8.28
2022-11-15T17:09:39.427Z,8.28
2022-11-15T17:12:12.600Z,8.30
2022-11-15T17:14:46.135Z,8.32
2022-11-15T17:17:18.242Z,8.35
2022-11-15T17:19:50.412Z,8.37
2022-11-15T17:22:22.707Z,8.35
2022-11-15T17:24:54.848Z,8.35
2022-11-15T17:27:26.865Z,8.36
2022-11-15T17:29:59.083Z,8.34
2022-11-15T17:32:31.160Z,8.32
2022-11-15T17:35:03.236Z,8.32
2022-11-15T17:37:35.359Z,8.34
2022-11-15T17:40:09.694Z,8.34
2022-11-15T17:42:43.307Z,8.34
2022-11-15T17:45:15.749Z,8.35
2022-11-15T17:47:47.870Z,8.37
2022-11-15T17:50:20.319Z,8.39
2022-11-15T17:52:52.638Z,8.40
2022-11-15T17:55:24.786Z,8.41
2022-11-15T17:57:56.903Z,8.40
2022-11-15T18:00:29.017Z,8.41
2022-11-15T18:03:01.163Z,8.41
2022-11-15T18:05:33.280Z,8.38
2022-11-15T18:08:07.622Z,8.37
2022-11-15T18:10:42.402Z,8.38
2022-11-15T18:13:14.672Z,8.38
2022-11-15T18:16:02.510Z,8.34
2022-11-15T18:18:36.498Z,8.29
2022-11-15T18:21:11.941Z,8.31
2022-11-15T18:23:43.109Z,8.35
2022-11-15T18:26:16.789Z,8.35
2022-11-15T18:28:50.440Z,8.39
2022-11-15T18:31:24.120Z,8.42
2022-11-15T18:33:57.182Z,8.44
2022-11-15T18:36:31.732Z,8.46
2022-11-15T18:39:05.257Z,8.48
2022-11-15T18:41:37.911Z,8.48
2022-11-15T18:44:10.130Z,8.48
2022-11-15T18:46:42.836Z,8.46
2022-11-15T18:49:16.709Z,8.45
2022-11-15T18:51:49.964Z,8.45
2022-11-15T18:54:24.499Z,8.46
2022-11-15T18:57:00.750Z,8.47
2022-11-15T18:59:33.303Z,8.49
2022-11-15T19:02:05.754Z,8.49
2022-11-15T19:04:37.849Z,8.43
2022-11-15T19:07:10.384Z,8.41
2022-11-15T19:09:42.924Z,8.40
2022-11-15T19:12:15.093Z,8.35
2022-11-15T19:14:48.026Z,8.34
2022-11-15T19:17:20.480Z,8.34
2022-11-15T19:19:53.133Z,8.30
2022-11-15T19:22:25.248Z,8.29
2022-11-15T19:24:58.315Z,8.30
2022-11-15T19:27:34.168Z,8.30
2022-11-15T19:30:12.813Z,8.27
2022-11-15T19:32:44.854Z,8.21
2022-11-15T19:35:17.303Z,8.17
2022-11-15T19:37:49.409Z,8.18
2022-11-15T19:40:21.488Z,8.18
2022-11-15T19:42:53.680Z,8.17
2022-11-15T19:45:26.053Z,8.19
2022-11-15T19:47:59.014Z,8.21
2022-11-15T19:50:31.184Z,8.21
2022-11-15T19:53:03.351Z,8.20
2022-11-15T19:55:35.443Z,8.18
2022-11-15T19:58:07.787Z,8.19
2022-11-15T20:00:40.284Z,8.16
2022-11-15T20:03:12.485Z,8.13
2022-11-15T20:05:45.026Z,8.14
2022-11-15T20:08:17.232Z,8.16
2022-11-15T20:10:49.835Z,8.21
2022-11-15T20:13:21.926Z,8.25
2022-11-15T20:15:54.556Z,8.27
2022-11-15T20:18:28.975Z,8.30
2022-11-15T20:21:01.887Z,8.34
2022-11-15T20:23:34.213Z,8.35
2022-11-15T20:26:06.877Z,8.31
2022-11-15T20:28:40.771Z,8.29
2022-11-15T20:31:14.041Z,8.28
2022-11-15T20:33:47.335Z,8.27
2022-11-15T20:36:19.555Z,8.24
2022-11-15T20:38:51.978Z,8.24
2022-11-15T20:41:24.099Z,8.26
2022-11-15T20:43:56.418Z,8.27
2022-11-15T20:46:28.613Z,8.28
2022-11-15T20:49:01.039Z,8.30
2022-11-15T20:51:33.491Z,8.31
2022-11-15T20:54:06.322Z,8.32
2022-11-15T20:56:38.870Z,8.32
2022-11-15T20:59:11.296Z,8.34
2022-11-15T21:01:43.567Z,8.35
2022-11-15T21:04:16.043Z,8.37
2022-11-15T21:06:49.026Z,8.38
2022-11-15T21:09:38.989Z,8.38
2022-11-15T21:12:14.648Z,8.39
2022-11-15T21:14:49.062Z,8.38
2022-11-15T21:17:21.235Z,8.34
2022-11-15T21:19:53.781Z,8.34
2022-11-15T21:22:26.027Z,8.35
2022-11-15T21:24:59.118Z,8.38
2022-11-15T21:27:31.539Z,8.39
2022-11-15T21:30:04.072Z,8.40
2022-11-15T21:32:37.260Z,8.40
2022-11-15T21:35:10.507Z,8.40
2022-11-15T21:37:42.644Z,8.42
2022-11-15T21:40:15.592Z,8.45
2022-11-15T21:42:47.982Z,8.47
2022-11-15T21:45:20.043Z,8.49
2022-11-15T21:47:52.162Z,8.50
2022-11-15T21:50:24.255Z,8.48
2022-11-15T21:52:56.374Z,8.49
2022-11-15T21:55:28.463Z,8.49
2022-11-15T21:58:00.519Z,8.46
2022-11-15T22:00:50.105Z,8.44
2022-11-15T22:03:22.531Z,8.41
2022-11-15T22:05:55.036Z,8.39
2022-11-15T22:08:27.714Z,8.40
2022-11-15T22:11:00.215Z,8.43
2022-11-15T22:13:32.629Z,8.44
2022-11-15T22:16:05.090Z,8.43
2022-11-15T22:18:38.343Z,8.40
2022-11-15T22:21:15.928Z,8.41
2022-11-15T22:23:48.309Z,8.43
2022-11-15T22:26:23.747Z,8.44
2022-11-15T22:28:56.377Z,8.45
2022-11-15T22:31:28.663Z,8.46
2022-11-15T22:34:01.049Z,8.47
2022-11-15T22:36:58.494Z,8.47
2022-11-15T22:39:29.808Z,8.47
2022-11-15T22:42:02.128Z,8.48
2022-11-15T22:44:34.654Z,8.49
2022-11-15T22:47:10.125Z,8.50
2022-11-15T22:49:44.704Z,8.50
2022-11-15T22:52:17.635Z,8.51
2022-11-15T22:54:50.201Z,8.51
2022-11-15T22:57:22.433Z,8.51
2022-11-15T22:59:54.575Z,8.51
2022-11-15T23:02:28.795Z,8.52
2022-11-15T23:05:01.112Z,8.50
2022-11-15T23:07:34.602Z,8.49
2022-11-15T23:10:28.874Z,8.48
2022-11-15T23:13:19.168Z,8.47
2022-11-15T23:16:10.689Z,8.46
2022-11-15T23:18:43.345Z,8.47
2022-11-15T23:21:38.578Z,8.48
2022-11-15T23:24:12.694Z,8.49
2022-11-15T23:26:46.012Z,8.50
2022-11-15T23:29:20.487Z,8.50
2022-11-15T23:32:10.292Z,8.48
2022-11-15T23:34:44.537Z,8.48
2022-11-15T23:37:17.750Z,8.48
2022-11-15T23:39:50.278Z,8.48
2022-11-15T23:42:22.523Z,8.48
2022-11-15T23:44:54.667Z,8.49
2022-11-15T23:47:26.832Z,8.50
2022-11-15T23:49:58.949Z,8.51
2022-11-15T23:52:31.196Z,8.50
2022-11-15T23:55:03.849Z,8.50
2022-11-15T23:57:35.940Z,8.50
